createdAt,value
2022-09-03T00:00:34.954Z,100.00
2022-09-03T00:03:05.698Z,100.00
2022-09-03T00:05:39.310Z,100.00
2022-09-03T00:08:11.357Z,100.00
2022-09-03T00:10:46.622Z,100.00
2022-09-03T00:13:20.815Z,100.00
2022-09-03T00:15:49.354Z,100.00
2022-09-03T00:18:20.755Z,100.00
2022-09-03T00:20:53.935Z,100.00
2022-09-03T00:23:25.463Z,100.00
2022-09-03T00:25:57.540Z,100.00
2022-09-03T00:28:30.326Z,100.00
2022-09-03T00:31:06.727Z,100.00
2022-09-03T00:33:34.986Z,100.00
2022-09-03T00:36:10.319Z,100.00
2022-09-03T00:38:39.083Z,100.00
2022-09-03T00:41:14.341Z,100.00
2022-09-03T00:44:05.158Z,100.00
2022-09-03T00:46:43.437Z,100.00
2022-09-03T00:49:33.120Z,100.00
2022-09-03T00:52:07.991Z,100.00
2022-09-03T00:54:43.757Z,100.00
2022-09-03T00:57:25.655Z,100.00
2022-09-03T01:00:02.643Z,100.00
2022-09-03T01:02:47.160Z,100.00
2022-09-03T01:05:22.372Z,100.00
2022-09-03T01:08:01.754Z,100.00
2022-09-03T01:10:38.614Z,100.00
2022-09-03T01:13:12.844Z,100.00
2022-09-03T01:15:54.315Z,100.00
2022-09-03T01:18:30.951Z,100.00
2022-09-03T01:21:17.442Z,100.00
2022-09-03T01:23:55.297Z,100.00
2022-09-03T01:26:31.297Z,100.00
2022-09-03T01:29:16.119Z,100.00
2022-09-03T01:31:57.540Z,100.00
2022-09-03T01:34:36.633Z,100.00
2022-09-03T01:37:14.375Z,100.00
2022-09-03T01:39:54.011Z,100.00
2022-09-03T01:42:32.920Z,100.00
2022-09-03T01:45:24.079Z,100.00
2022-09-03T01:48:06.317Z,100.00
2022-09-03T01:50:43.222Z,100.00
2022-09-03T01:53:20.049Z,100.00
2022-09-03T01:56:09.884Z,100.00
2022-09-03T01:58:42.379Z,100.00
2022-09-03T02:01:18.497Z,100.00
2022-09-03T02:03:46.994Z,100.00
2022-09-03T02:06:14.796Z,100.00
2022-09-03T02:08:42.191Z,100.00
2022-09-03T02:11:10.685Z,100.00
2022-09-03T02:13:42.075Z,100.00
2022-09-03T02:16:15.121Z,100.00
2022-09-03T02:18:46.827Z,100.00
2022-09-03T02:21:17.829Z,100.00
2022-09-03T02:23:45.315Z,100.00
2022-09-03T02:26:17.515Z,100.00
2022-09-03T02:28:45.148Z,100.00
2022-09-03T02:31:13.906Z,100.00
2022-09-03T02:33:44.977Z,100.00
2022-09-03T02:36:14.952Z,100.00
2022-09-03T02:38:44.077Z,100.00
2022-09-03T02:41:15.032Z,100.00
2022-09-03T02:43:48.825Z,100.00
2022-09-03T02:46:21.847Z,100.00
2022-09-03T02:48:49.562Z,100.00
2022-09-03T02:51:16.960Z,100.00
2022-09-03T02:53:45.189Z,100.00
2022-09-03T02:56:13.112Z,100.00
2022-09-03T02:58:40.876Z,100.00
2022-09-03T03:01:08.431Z,100.00
2022-09-03T03:03:37.178Z,100.00
2022-09-03T03:06:06.953Z,100.00
2022-09-03T03:08:35.269Z,100.00
2022-09-03T03:11:02.764Z,100.00
2022-09-03T03:13:32.636Z,100.00
2022-09-03T03:16:02.423Z,100.00
2022-09-03T03:18:30.300Z,100.00
2022-09-03T03:20:59.152Z,100.00
2022-09-03T03:23:26.531Z,100.00
2022-09-03T03:25:53.904Z,100.00
2022-09-03T03:28:21.332Z,100.00
2022-09-03T03:30:49.023Z,100.00
2022-09-03T03:33:16.640Z,100.00
2022-09-03T03:35:44.124Z,100.00
2022-09-03T03:38:12.932Z,100.00
2022-09-03T03:40:40.527Z,100.00
2022-09-03T03:43:08.012Z,100.00
2022-09-03T03:45:35.431Z,100.00
2022-09-03T03:48:03.000Z,100.00
2022-09-03T03:50:30.398Z,100.00
2022-09-03T03:53:01.218Z,100.00
2022-09-03T03:55:35.112Z,100.00
2022-09-03T03:58:02.811Z,100.00
2022-09-03T04:00:30.235Z,100.00
2022-09-03T04:02:57.667Z,100.00
2022-09-03T04:05:25.195Z,100.00
2022-09-03T04:07:54.216Z,100.00
2022-09-03T04:10:21.641Z,100.00
2022-09-03T04:12:50.333Z,100.00
2022-09-03T04:15:17.969Z,100.00
2022-09-03T04:17:45.407Z,100.00
2022-09-03T04:20:12.798Z,100.00
2022-09-03T04:22:40.203Z,100.00
2022-09-03T04:25:08.277Z,100.00
2022-09-03T04:27:35.643Z,100.00
2022-09-03T04:30:04.775Z,100.00
2022-09-03T04:32:49.452Z,100.00
2022-09-03T04:35:20.856Z,100.00
2022-09-03T04:37:48.284Z,100.00
2022-09-03T04:40:15.842Z,100.00
2022-09-03T04:42:43.274Z,100.00
2022-09-03T04:45:18.475Z,100.00
2022-09-03T04:47:47.360Z,100.00
2022-09-03T04:50:14.768Z,100.00
2022-09-03T04:52:42.153Z,100.00
2022-09-03T04:55:10.735Z,100.00
2022-09-03T04:57:38.148Z,100.00
2022-09-03T05:00:11.211Z,100.00
2022-09-03T05:02:40.020Z,100.00
2022-09-03T05:05:07.990Z,100.00
2022-09-03T05:07:38.629Z,100.00
2022-09-03T05:10:08.184Z,100.00
2022-09-03T05:12:35.860Z,100.00
2022-09-03T05:15:04.308Z,100.00
2022-09-03T05:17:34.093Z,100.00
2022-09-03T05:20:07.552Z,100.00
2022-09-03T05:22:35.298Z,100.00
2022-09-03T05:25:02.758Z,100.00
2022-09-03T05:27:31.759Z,100.00
2022-09-03T05:29:59.144Z,100.00
2022-09-03T05:32:28.622Z,100.00
2022-09-03T05:34:56.464Z,100.00
2022-09-03T05:37:25.308Z,100.00
2022-09-03T05:39:53.106Z,100.00
2022-09-03T05:42:22.054Z,100.00
2022-09-03T05:44:49.959Z,100.00
2022-09-03T05:47:17.416Z,100.00
2022-09-03T05:49:44.799Z,100.00
2022-09-03T05:52:12.178Z,100.00
2022-09-03T05:54:40.877Z,100.00
2022-09-03T05:57:08.323Z,100.00
2022-09-03T05:59:35.725Z,100.00
2022-09-03T06:02:03.239Z,100.00
2022-09-03T06:04:30.782Z,100.00
2022-09-03T06:06:58.313Z,100.00
2022-09-03T06:09:25.714Z,100.00
2022-09-03T06:11:57.228Z,100.00
2022-09-03T06:14:25.203Z,100.00
2022-09-03T06:16:52.959Z,100.00
2022-09-03T06:19:20.660Z,100.00
2022-09-03T06:21:48.455Z,100.00
2022-09-03T06:24:18.199Z,100.00
2022-09-03T06:26:46.553Z,100.00
2022-09-03T06:29:16.652Z,100.00
2022-09-03T06:31:44.133Z,100.00
2022-09-03T06:34:12.643Z,100.00
2022-09-03T06:36:41.260Z,100.00
2022-09-03T06:39:08.671Z,100.00
2022-09-03T06:41:36.619Z,100.00
2022-09-03T06:44:05.935Z,100.00
2022-09-03T06:46:38.779Z,100.00
2022-09-03T06:49:06.349Z,100.00
2022-09-03T06:51:34.198Z,100.00
2022-09-03T06:54:04.503Z,100.00
2022-09-03T06:56:37.367Z,100.00
2022-09-03T06:59:08.976Z,100.00
2022-09-03T07:01:43.547Z,100.00
2022-09-03T07:04:13.237Z,100.00
2022-09-03T07:06:42.910Z,100.00
2022-09-03T07:09:12.263Z,100.00
2022-09-03T07:11:46.892Z,100.00
2022-09-03T07:14:16.247Z,100.00
2022-09-03T07:16:46.006Z,100.00
2022-09-03T07:19:14.113Z,100.00
2022-09-03T07:21:48.139Z,100.00
2022-09-03T07:24:18.085Z,100.00
2022-09-03T07:26:46.515Z,100.00
2022-09-03T07:29:15.759Z,100.00
2022-09-03T07:31:45.518Z,100.00
2022-09-03T07:34:16.393Z,100.00
2022-09-03T07:36:47.417Z,100.00
2022-09-03T07:39:17.783Z,100.00
2022-09-03T07:41:46.641Z,100.00
2022-09-03T07:44:16.126Z,100.00
2022-09-03T07:46:46.117Z,100.00
2022-09-03T07:49:14.052Z,100.00
2022-09-03T07:51:41.466Z,100.00
2022-09-03T07:54:11.690Z,100.00
2022-09-03T07:56:41.128Z,100.00
2022-09-03T07:59:09.676Z,100.00
2022-09-03T08:01:41.298Z,100.00
2022-09-03T08:04:10.945Z,100.00
2022-09-03T08:06:39.393Z,100.00
2022-09-03T08:09:09.152Z,100.00
2022-09-03T08:11:39.196Z,100.00
2022-09-03T08:14:08.676Z,100.00
2022-09-03T08:16:37.569Z,100.00
2022-09-03T08:19:05.696Z,100.00
2022-09-03T08:21:34.586Z,100.00
2022-09-03T08:24:03.283Z,100.00
2022-09-03T08:26:32.707Z,100.00
2022-09-03T08:29:00.635Z,100.00
2022-09-03T08:31:31.715Z,100.00
2022-09-03T08:34:06.776Z,100.00
2022-09-03T08:36:37.270Z,100.00
2022-09-03T08:39:09.456Z,100.00
2022-09-03T08:41:50.247Z,100.00
2022-09-03T08:44:25.045Z,100.00
2022-09-03T08:46:56.597Z,100.00
2022-09-03T08:49:28.664Z,100.00
2022-09-03T08:52:02.251Z,100.00
2022-09-03T08:54:32.519Z,100.00
2022-09-03T08:57:03.300Z,100.00
2022-09-03T08:59:33.100Z,95.20
2022-09-03T09:02:11.801Z,98.68
2022-09-03T09:04:54.582Z,97.09
2022-09-03T09:07:28.378Z,97.98
2022-09-03T09:10:03.033Z,94.64
2022-09-03T09:12:44.049Z,92.76
2022-09-03T09:15:18.889Z,88.10
2022-09-03T09:18:07.687Z,83.58
2022-09-03T09:20:44.741Z,80.70
2022-09-03T09:23:15.812Z,84.39
2022-09-03T09:25:48.904Z,91.97
2022-09-03T09:28:19.577Z,84.09
2022-09-03T09:30:48.416Z,92.63
2022-09-03T09:33:16.025Z,90.53
2022-09-03T09:35:43.603Z,98.29
2022-09-03T09:38:13.963Z,80.85
2022-09-03T09:40:46.095Z,82.12
2022-09-03T09:43:15.943Z,84.11
2022-09-03T09:45:45.492Z,81.81
2022-09-03T09:48:24.109Z,81.73
2022-09-03T09:50:51.624Z,79.91
2022-09-03T09:53:21.680Z,82.34
2022-09-03T09:55:53.977Z,77.74
2022-09-03T09:58:23.523Z,81.98
2022-09-03T10:01:00.226Z,79.49
2022-09-03T10:03:29.789Z,80.33
2022-09-03T10:06:20.856Z,85.38
2022-09-03T10:08:49.768Z,85.74
2022-09-03T10:11:18.705Z,90.52
2022-09-03T10:13:48.992Z,80.74
2022-09-03T10:16:26.675Z,99.17
2022-09-03T10:19:01.796Z,88.49
2022-09-03T10:21:34.264Z,78.53
2022-09-03T10:24:20.955Z,86.32
2022-09-03T10:26:48.351Z,76.55
2022-09-03T10:29:19.557Z,79.69
2022-09-03T10:32:00.040Z,73.09
2022-09-03T10:34:35.052Z,69.11
2022-09-03T10:37:11.975Z,71.00
2022-09-03T10:39:58.893Z,72.45
2022-09-03T10:42:38.276Z,78.06
2022-09-03T10:45:14.883Z,64.99
2022-09-03T10:48:14.314Z,66.17
2022-09-03T10:50:48.691Z,71.59
2022-09-03T10:53:31.170Z,66.07
2022-09-03T10:56:08.787Z,63.66
2022-09-03T10:58:54.729Z,64.87
2022-09-03T11:01:33.882Z,65.75
2022-09-03T11:04:15.119Z,64.60
2022-09-03T11:06:49.979Z,75.02
2022-09-03T11:09:23.928Z,70.05
2022-09-03T11:11:57.525Z,72.70
2022-09-03T11:14:35.198Z,69.33
2022-09-03T11:17:08.710Z,70.12
2022-09-03T11:19:41.956Z,68.64
2022-09-03T11:22:11.689Z,70.35
2022-09-03T11:24:42.075Z,69.81
2022-09-03T11:27:26.166Z,79.83
2022-09-03T11:30:00.203Z,72.12
2022-09-03T11:32:48.559Z,71.65
2022-09-03T11:35:27.832Z,66.05
2022-09-03T11:38:00.393Z,71.01
2022-09-03T11:40:33.752Z,66.51
2022-09-03T11:43:13.488Z,71.05
2022-09-03T11:45:41.445Z,67.54
2022-09-03T11:48:20.807Z,70.26
2022-09-03T11:50:55.947Z,72.50
2022-09-03T11:53:28.116Z,70.99
2022-09-03T11:55:58.520Z,72.40
2022-09-03T11:58:32.802Z,73.06
2022-09-03T12:01:02.934Z,71.67
2022-09-03T12:03:44.164Z,62.49
2022-09-03T12:06:51.810Z,63.62
2022-09-03T12:09:38.646Z,67.61
2022-09-03T12:12:19.926Z,69.15
2022-09-03T12:14:57.100Z,62.45
2022-09-03T12:17:33.362Z,63.76
2022-09-03T12:20:00.798Z,68.75
2022-09-03T12:22:31.219Z,60.42
2022-09-03T12:25:11.953Z,63.56
2022-09-03T12:27:41.065Z,61.62
2022-09-03T12:30:17.685Z,63.84
2022-09-03T12:32:47.467Z,63.35
2022-09-03T12:38:09.277Z,67.37
2022-09-03T12:43:39.388Z,68.85
2022-09-03T12:46:15.205Z,68.60
2022-09-03T12:51:53.426Z,67.36
2022-09-03T12:54:23.917Z,69.14
2022-09-03T12:56:57.393Z,72.66
2022-09-03T12:59:28.602Z,74.27
2022-09-03T13:02:00.600Z,74.90
2022-09-03T13:04:32.828Z,78.67
2022-09-03T13:07:04.669Z,69.20
2022-09-03T13:09:37.296Z,78.97
2022-09-03T13:12:05.480Z,77.11
2022-09-03T13:14:43.897Z,76.89
2022-09-03T13:17:28.694Z,73.82
2022-09-03T13:20:16.137Z,69.38
2022-09-03T13:23:03.388Z,72.08
2022-09-03T13:25:41.887Z,73.88
2022-09-03T13:28:22.453Z,66.58
2022-09-03T13:30:56.545Z,65.89
2022-09-03T13:33:29.345Z,65.14
2022-09-03T13:36:03.225Z,69.71
2022-09-03T13:38:37.377Z,66.39
2022-09-03T13:41:20.257Z,66.14
2022-09-03T13:43:54.810Z,59.93
2022-09-03T13:46:29.307Z,61.60
2022-09-03T13:49:17.936Z,64.33
2022-09-03T13:51:50.211Z,69.29
2022-09-03T13:54:47.686Z,64.82
2022-09-03T13:57:25.151Z,69.14
2022-09-03T13:59:57.663Z,67.38
2022-09-03T14:02:34.352Z,68.15
2022-09-03T14:05:10.500Z,74.31
2022-09-03T14:07:49.401Z,76.25
2022-09-03T14:10:23.565Z,69.85
2022-09-03T14:12:56.983Z,72.17
2022-09-03T14:15:30.400Z,71.10
2022-09-03T14:18:03.608Z,71.48
2022-09-03T14:20:36.013Z,78.58
2022-09-03T14:23:08.315Z,75.68
2022-09-03T14:25:35.723Z,80.00
2022-09-03T14:28:31.205Z,83.68
2022-09-03T14:31:07.479Z,84.69
2022-09-03T14:33:44.275Z,81.46
2022-09-03T14:36:24.175Z,78.32
2022-09-03T14:39:24.592Z,80.20
2022-09-03T14:42:26.864Z,77.77
2022-09-03T14:45:29.482Z,75.21
2022-09-03T14:48:14.642Z,79.66
2022-09-03T14:50:55.180Z,84.71
2022-09-03T14:53:37.843Z,84.34
2022-09-03T14:56:23.624Z,80.53
2022-09-03T14:59:14.934Z,81.23
2022-09-03T15:01:49.581Z,78.23
2022-09-03T15:04:51.110Z,84.43
2022-09-03T15:07:34.932Z,86.32
2022-09-03T15:10:13.751Z,80.90
2022-09-03T15:12:44.975Z,80.85
2022-09-03T15:15:19.712Z,82.24
2022-09-03T15:18:05.364Z,80.43
2022-09-03T15:20:37.345Z,83.98
2022-09-03T15:23:20.275Z,75.85
2022-09-03T15:26:11.680Z,79.71
2022-09-03T15:28:51.279Z,82.93
2022-09-03T15:31:27.207Z,78.18
2022-09-03T15:34:04.237Z,86.45
2022-09-03T15:36:38.917Z,82.72
2022-09-03T15:39:10.129Z,80.98
2022-09-03T15:41:45.405Z,84.99
2022-09-03T15:44:19.212Z,87.89
2022-09-03T15:46:56.743Z,88.04
2022-09-03T15:49:34.751Z,83.08
2022-09-03T15:52:20.186Z,91.98
2022-09-03T15:54:54.271Z,94.71
2022-09-03T15:57:30.379Z,86.70
2022-09-03T16:00:03.332Z,95.58
2022-09-03T16:02:35.033Z,97.52
2022-09-03T16:05:13.824Z,84.53
2022-09-03T16:08:09.004Z,86.31
2022-09-03T16:10:46.214Z,97.56
2022-09-03T16:13:31.804Z,91.99
2022-09-03T16:16:03.292Z,91.41
2022-09-03T16:18:35.629Z,87.24
2022-09-03T16:21:11.050Z,91.27
2022-09-03T16:23:47.450Z,93.32
2022-09-03T16:26:19.820Z,97.04
2022-09-03T16:28:53.156Z,95.71
2022-09-03T16:31:35.156Z,96.16
2022-09-03T16:34:17.963Z,100.00
2022-09-03T16:36:59.792Z,100.00
2022-09-03T16:39:40.356Z,97.97
2022-09-03T16:42:18.151Z,100.00
2022-09-03T16:45:00.746Z,100.00
2022-09-03T16:47:41.720Z,100.00
2022-09-03T16:50:22.285Z,100.00
2022-09-03T16:53:02.939Z,100.00
2022-09-03T16:55:48.808Z,100.00
2022-09-03T16:58:22.380Z,100.00
2022-09-03T17:01:06.854Z,100.00
2022-09-03T17:03:51.184Z,100.00
2022-09-03T17:06:52.413Z,100.00
2022-09-03T17:09:36.072Z,100.00
2022-09-03T17:12:09.132Z,100.00
2022-09-03T17:15:14.183Z,100.00
2022-09-03T17:17:54.692Z,100.00
2022-09-03T17:20:26.655Z,100.00
2022-09-03T17:23:07.427Z,100.00
2022-09-03T17:25:38.311Z,100.00
2022-09-03T17:28:25.855Z,100.00
2022-09-03T17:30:58.551Z,100.00
2022-09-03T17:33:50.833Z,100.00
2022-09-03T17:36:24.306Z,100.00
2022-09-03T17:39:17.772Z,100.00
2022-09-03T17:41:53.727Z,100.00
2022-09-03T17:44:47.935Z,100.00
2022-09-03T17:47:43.405Z,100.00
2022-09-03T17:50:18.831Z,100.00
2022-09-03T17:52:49.679Z,100.00
2022-09-03T17:55:25.871Z,100.00
2022-09-03T17:58:00.719Z,100.00
2022-09-03T18:00:35.930Z,100.00
2022-09-03T18:03:12.320Z,100.00
2022-09-03T18:05:46.975Z,100.00
2022-09-03T18:08:20.281Z,100.00
2022-09-03T18:11:01.105Z,100.00
2022-09-03T18:13:44.207Z,100.00
2022-09-03T18:16:16.743Z,100.00
2022-09-03T18:18:47.738Z,100.00
2022-09-03T18:21:38.001Z,100.00
2022-09-03T18:24:35.750Z,100.00
2022-09-03T18:27:28.483Z,100.00
2022-09-03T18:30:21.499Z,100.00
2022-09-03T18:33:07.348Z,100.00
2022-09-03T18:35:52.721Z,100.00
2022-09-03T18:38:43.896Z,100.00
2022-09-03T18:41:50.117Z,100.00
2022-09-03T18:44:46.602Z,100.00
2022-09-03T18:48:02.235Z,100.00
2022-09-03T18:50:56.839Z,100.00
2022-09-03T18:53:50.054Z,100.00
2022-09-03T18:56:50.951Z,100.00
2022-09-03T18:59:51.491Z,100.00
2022-09-03T19:02:46.247Z,100.00
2022-09-03T19:05:37.464Z,100.00
2022-09-03T19:08:33.765Z,100.00
2022-09-03T19:11:27.624Z,100.00
2022-09-03T19:14:19.482Z,100.00
2022-09-03T19:17:13.454Z,100.00
2022-09-03T19:20:12.007Z,100.00
2022-09-03T19:22:58.683Z,100.00
2022-09-03T19:25:44.983Z,100.00
2022-09-03T19:28:33.911Z,100.00
2022-09-03T19:31:40.979Z,100.00
2022-09-03T19:34:42.484Z,100.00
2022-09-03T19:37:35.025Z,100.00
2022-09-03T19:40:33.531Z,100.00
2022-09-03T19:43:33.629Z,100.00
2022-09-03T19:46:31.355Z,100.00
2022-09-03T19:49:26.091Z,100.00
2022-09-03T19:52:20.928Z,100.00
2022-09-03T19:55:11.793Z,100.00
2022-09-03T19:57:58.756Z,100.00
2022-09-03T20:00:44.024Z,100.00
2022-09-03T20:03:31.745Z,100.00
2022-09-03T20:06:19.540Z,100.00
2022-09-03T20:09:05.784Z,100.00
2022-09-03T20:11:34.828Z,100.00
2022-09-03T20:14:14.198Z,100.00
2022-09-03T20:17:02.493Z,100.00
2022-09-03T20:19:41.917Z,100.00
2022-09-03T20:22:19.873Z,100.00
2022-09-03T20:25:02.499Z,100.00
2022-09-03T20:27:44.783Z,100.00
2022-09-03T20:30:16.100Z,100.00
2022-09-03T20:33:01.005Z,100.00
2022-09-03T20:35:40.540Z,100.00
2022-09-03T20:38:22.432Z,100.00
2022-09-03T20:41:00.054Z,100.00
2022-09-03T20:43:56.449Z,100.00
2022-09-03T20:46:40.942Z,100.00
2022-09-03T20:49:20.113Z,100.00
2022-09-03T20:51:55.092Z,100.00
2022-09-03T20:54:32.194Z,100.00
2022-09-03T20:57:16.852Z,100.00
2022-09-03T20:59:54.584Z,100.00
2022-09-03T21:02:33.226Z,100.00
2022-09-03T21:05:10.458Z,100.00
2022-09-03T21:07:52.843Z,100.00
2022-09-03T21:10:26.789Z,100.00
2022-09-03T21:13:03.317Z,100.00
2022-09-03T21:15:43.340Z,100.00
2022-09-03T21:18:22.925Z,100.00
2022-09-03T21:20:57.623Z,100.00
2022-09-03T21:23:28.785Z,100.00
2022-09-03T21:26:02.342Z,100.00
2022-09-03T21:28:42.147Z,100.00
2022-09-03T21:31:18.083Z,100.00
2022-09-03T21:33:48.877Z,100.00
2022-09-03T21:36:22.346Z,100.00
2022-09-03T21:38:59.672Z,100.00
2022-09-03T21:41:31.140Z,100.00
2022-09-03T21:44:04.705Z,100.00
2022-09-03T21:46:38.603Z,100.00
2022-09-03T21:49:10.853Z,100.00
2022-09-03T21:51:44.068Z,100.00
2022-09-03T21:54:18.831Z,100.00
2022-09-03T21:56:54.639Z,100.00
2022-09-03T21:59:40.477Z,100.00
2022-09-03T22:02:18.440Z,100.00
2022-09-03T22:04:45.972Z,100.00
2022-09-03T22:07:22.672Z,100.00
2022-09-03T22:10:00.496Z,100.00
2022-09-03T22:12:32.765Z,100.00
2022-09-03T22:15:02.187Z,100.00
2022-09-03T22:17:38.246Z,100.00
2022-09-03T22:20:06.287Z,100.00
2022-09-03T22:22:44.062Z,100.00
2022-09-03T22:25:17.846Z,100.00
2022-09-03T22:27:50.609Z,100.00
2022-09-03T22:30:22.005Z,100.00
2022-09-03T22:33:01.159Z,100.00
2022-09-03T22:35:42.973Z,100.00
2022-09-03T22:38:25.367Z,100.00
2022-09-03T22:41:00.784Z,100.00
2022-09-03T22:43:36.635Z,100.00
2022-09-03T22:46:12.147Z,100.00
2022-09-03T22:49:12.978Z,100.00
2022-09-03T22:51:59.153Z,100.00
2022-09-03T22:54:42.575Z,100.00
2022-09-03T22:57:11.715Z,100.00
2022-09-03T22:59:42.215Z,100.00
2022-09-03T23:02:13.921Z,100.00
2022-09-03T23:04:47.600Z,100.00
2022-09-03T23:07:23.184Z,100.00
2022-09-03T23:09:55.475Z,100.00
2022-09-03T23:12:33.932Z,100.00
2022-09-03T23:15:06.725Z,100.00
2022-09-03T23:17:39.803Z,100.00
2022-09-03T23:20:13.324Z,100.00
2022-09-03T23:22:46.091Z,100.00
2022-09-03T23:25:19.502Z,100.00
2022-09-03T23:27:53.483Z,100.00
2022-09-03T23:30:21.050Z,100.00
2022-09-03T23:32:54.070Z,100.00
2022-09-03T23:35:27.099Z,100.00
2022-09-03T23:38:08.984Z,100.00
2022-09-03T23:40:45.238Z,100.00
2022-09-03T23:43:51.997Z,100.00
2022-09-03T23:46:24.944Z,100.00
2022-09-03T23:49:04.506Z,100.00
2022-09-03T23:51:42.012Z,100.00
2022-09-03T23:54:18.937Z,100.00
2022-09-03T23:57:03.201Z,100.00
2022-09-03T23:59:41.899Z,100.00
